sensor_id;sensor_type;location;lat;lon;timestamp;pressure;altitude;pressure_sealevel;temperature;humidity
70343;BME280;57767;42.068;24.752;2022-08-19T00:00:23;98410.91;;;25.39;43.77
70343;BME280;57767;42.068;24.752;2022-08-19T00:01:26;98423.31;;;25.40;44.03
70343;BME280;57767;42.068;24.752;2022-08-19T00:02:30;98427.56;;;25.23;43.93
70343;BME280;57767;42.068;24.752;2022-08-19T00:03:32;98409.25;;;25.12;44.33
70343;BME280;57767;42.068;24.752;2022-08-19T00:04:35;98421.34;;;25.14;44.51
70343;BME280;57767;42.068;24.752;2022-08-19T00:05:38;98423.72;;;25.07;44.51
70343;BME280;57767;42.068;24.752;2022-08-19T00:06:42;98428.75;;;25.00;45.30
70343;BME280;57767;42.068;24.752;2022-08-19T00:07:44;98411.41;;;24.92;45.17
70343;BME280;57767;42.068;24.752;2022-08-19T00:08:47;98425.28;;;24.99;45.27
70343;BME280;57767;42.068;24.752;2022-08-19T00:09:48;98419.44;;;24.84;46.13
70343;BME280;57767;42.068;24.752;2022-08-19T00:10:50;98417.97;;;24.69;46.20
70343;BME280;57767;42.068;24.752;2022-08-19T00:11:53;98424.91;;;24.61;46.68
70343;BME280;57767;42.068;24.752;2022-08-19T00:12:57;98415.72;;;24.62;46.60
70343;BME280;57767;42.068;24.752;2022-08-19T00:13:58;98405.47;;;24.51;46.39
70343;BME280;57767;42.068;24.752;2022-08-19T00:15:00;98415.66;;;24.54;46.13
70343;BME280;57767;42.068;24.752;2022-08-19T00:16:03;98415.97;;;24.52;46.00
70343;BME280;57767;42.068;24.752;2022-08-19T00:17:05;98423.09;;;24.48;46.10
70343;BME280;57767;42.068;24.752;2022-08-19T00:18:07;98413.53;;;24.42;46.34
70343;BME280;57767;42.068;24.752;2022-08-19T00:19:10;98416.91;;;24.48;45.81
70343;BME280;57767;42.068;24.752;2022-08-19T00:20:15;98420.69;;;24.47;45.45
70343;BME280;57767;42.068;24.752;2022-08-19T00:21:19;98404.34;;;24.43;45.54
70343;BME280;57767;42.068;24.752;2022-08-19T00:22:20;98417.56;;;24.53;46.07
70343;BME280;57767;42.068;24.752;2022-08-19T00:23:22;98410.09;;;24.50;45.43
70343;BME280;57767;42.068;24.752;2022-08-19T00:24:24;98414.72;;;24.58;45.30
70343;BME280;57767;42.068;24.752;2022-08-19T00:25:26;98412.03;;;24.58;46.15
70343;BME280;57767;42.068;24.752;2022-08-19T00:26:31;98415.81;;;24.57;45.57
70343;BME280;57767;42.068;24.752;2022-08-19T00:27:33;98411.06;;;24.54;45.67
70343;BME280;57767;42.068;24.752;2022-08-19T00:28:35;98411.06;;;24.54;46.81
70343;BME280;57767;42.068;24.752;2022-08-19T00:29:37;98406.63;;;24.58;46.97
70343;BME280;57767;42.068;24.752;2022-08-19T00:30:39;98396.28;;;24.52;46.82
70343;BME280;57767;42.068;24.752;2022-08-19T00:31:43;98409.03;;;24.60;46.58
70343;BME280;57767;42.068;24.752;2022-08-19T00:32:45;98405.41;;;24.64;46.45
70343;BME280;57767;42.068;24.752;2022-08-19T00:33:47;98404.91;;;24.62;45.71
70343;BME280;57767;42.068;24.752;2022-08-19T00:34:51;98411.88;;;24.55;45.65
70343;BME280;57767;42.068;24.752;2022-08-19T00:35:55;98404.06;;;24.53;46.33
70343;BME280;57767;42.068;24.752;2022-08-19T00:36:57;98390.69;;;24.48;46.05
70343;BME280;57767;42.068;24.752;2022-08-19T00:37:59;98393.41;;;24.48;46.28
70343;BME280;57767;42.068;24.752;2022-08-19T00:39:01;98397.22;;;24.47;46.34
70343;BME280;57767;42.068;24.752;2022-08-19T00:40:05;98380.97;;;24.39;46.45
70343;BME280;57767;42.068;24.752;2022-08-19T00:41:14;98386.41;;;24.47;46.18
70343;BME280;57767;42.068;24.752;2022-08-19T00:42:19;98389.09;;;24.47;46.15
70343;BME280;57767;42.068;24.752;2022-08-19T00:43:23;98379.56;;;24.41;45.94
70343;BME280;57767;42.068;24.752;2022-08-19T00:44:28;98390.22;;;24.46;46.32
70343;BME280;57767;42.068;24.752;2022-08-19T00:45:31;98388.16;;;24.43;45.91
70343;BME280;57767;42.068;24.752;2022-08-19T00:46:39;98384.03;;;24.46;46.36
70343;BME280;57767;42.068;24.752;2022-08-19T00:47:41;98385.91;;;24.45;45.74
70343;BME280;57767;42.068;24.752;2022-08-19T00:48:43;98383.72;;;24.47;46.32
70343;BME280;57767;42.068;24.752;2022-08-19T00:49:48;98387.34;;;24.43;45.91
70343;BME280;57767;42.068;24.752;2022-08-19T00:50:54;98387.50;;;24.46;46.24
70343;BME280;57767;42.068;24.752;2022-08-19T00:52:02;98384.50;;;24.48;45.86
70343;BME280;57767;42.068;24.752;2022-08-19T00:53:06;98387.69;;;24.50;47.49
70343;BME280;57767;42.068;24.752;2022-08-19T00:54:08;98379.72;;;24.45;47.20
70343;BME280;57767;42.068;24.752;2022-08-19T00:55:21;98381.31;;;24.46;47.33
70343;BME280;57767;42.068;24.752;2022-08-19T00:56:23;98366.38;;;24.40;47.42
70343;BME280;57767;42.068;24.752;2022-08-19T00:57:29;98378.00;;;24.49;47.42
70343;BME280;57767;42.068;24.752;2022-08-19T00:58:33;98357.19;;;24.41;47.70
70343;BME280;57767;42.068;24.752;2022-08-19T00:59:38;98359.97;;;24.27;46.97
70343;BME280;57767;42.068;24.752;2022-08-19T01:01:03;98375.28;;;24.40;46.95
70343;BME280;57767;42.068;24.752;2022-08-19T01:02:06;98367.19;;;24.40;47.54
70343;BME280;57767;42.068;24.752;2022-08-19T01:03:12;98368.41;;;24.34;47.02
70343;BME280;57767;42.068;24.752;2022-08-19T01:04:14;98350.28;;;24.26;47.31
70343;BME280;57767;42.068;24.752;2022-08-19T01:05:20;98364.00;;;24.38;47.03
70343;BME280;57767;42.068;24.752;2022-08-19T01:06:23;98354.41;;;24.32;46.73
70343;BME280;57767;42.068;24.752;2022-08-19T01:07:24;98356.28;;;24.23;47.05
70343;BME280;57767;42.068;24.752;2022-08-19T01:08:26;98357.50;;;24.17;46.71
70343;BME280;57767;42.068;24.752;2022-08-19T01:09:29;98338.81;;;23.98;46.91
70343;BME280;57767;42.068;24.752;2022-08-19T01:10:37;98373.75;;;24.03;47.13
70343;BME280;57767;42.068;24.752;2022-08-19T01:11:41;98369.16;;;24.04;47.95
70343;BME280;57767;42.068;24.752;2022-08-19T01:12:46;98362.50;;;24.10;47.74
70343;BME280;57767;42.068;24.752;2022-08-19T01:13:48;98346.47;;;24.05;47.82
70343;BME280;57767;42.068;24.752;2022-08-19T01:14:52;98361.06;;;24.04;47.47
70343;BME280;57767;42.068;24.752;2022-08-19T01:15:58;98351.88;;;24.05;47.42
70343;BME280;57767;42.068;24.752;2022-08-19T01:17:01;98361.91;;;24.13;47.17
70343;BME280;57767;42.068;24.752;2022-08-19T01:18:08;98349.72;;;24.15;48.29
70343;BME280;57767;42.068;24.752;2022-08-19T01:19:17;98350.03;;;24.14;48.46
70343;BME280;57767;42.068;24.752;2022-08-19T01:20:23;98356.84;;;24.20;48.00
70343;BME280;57767;42.068;24.752;2022-08-19T01:21:34;98343.34;;;24.11;48.32
70343;BME280;57767;42.068;24.752;2022-08-19T01:22:47;98348.31;;;24.18;47.53
70343;BME280;57767;42.068;24.752;2022-08-19T01:23:49;98349.91;;;24.19;47.02
70343;BME280;57767;42.068;24.752;2022-08-19T01:24:52;98341.00;;;24.18;48.10
70343;BME280;57767;42.068;24.752;2022-08-19T01:25:55;98355.06;;;24.29;48.85
70343;BME280;57767;42.068;24.752;2022-08-19T01:26:59;98357.75;;;24.29;48.58
70343;BME280;57767;42.068;24.752;2022-08-19T01:28:01;98357.44;;;24.31;48.48
70343;BME280;57767;42.068;24.752;2022-08-19T01:29:11;98358.56;;;24.30;48.71
70343;BME280;57767;42.068;24.752;2022-08-19T01:30:19;98360.16;;;24.31;47.56
70343;BME280;57767;42.068;24.752;2022-08-19T01:31:25;98347.56;;;24.26;48.00
70343;BME280;57767;42.068;24.752;2022-08-19T01:32:28;98366.00;;;24.33;48.53
70343;BME280;57767;42.068;24.752;2022-08-19T01:33:34;98357.59;;;24.34;47.78
70343;BME280;57767;42.068;24.752;2022-08-19T01:34:36;98363.66;;;24.31;48.56
70343;BME280;57767;42.068;24.752;2022-08-19T01:35:38;98363.66;;;24.31;47.77
70343;BME280;57767;42.068;24.752;2022-08-19T01:36:45;98361.38;;;24.24;47.88
70343;BME280;57767;42.068;24.752;2022-08-19T01:38:56;98363.69;;;24.17;48.83
70343;BME280;57767;42.068;24.752;2022-08-19T01:39:59;98364.13;;;24.11;47.42
70343;BME280;57767;42.068;24.752;2022-08-19T01:41:01;98367.56;;;24.03;48.47
70343;BME280;57767;42.068;24.752;2022-08-19T01:42:11;98375.16;;;24.01;48.81
70343;BME280;57767;42.068;24.752;2022-08-19T01:43:13;98369.16;;;24.04;48.65
70343;BME280;57767;42.068;24.752;2022-08-19T01:44:16;98376.94;;;24.05;48.11
70343;BME280;57767;42.068;24.752;2022-08-19T01:45:23;98380.28;;;24.11;48.73
70343;BME280;57767;42.068;24.752;2022-08-19T01:46:26;98360.06;;;24.00;48.11
70343;BME280;57767;42.068;24.752;2022-08-19T01:47:28;98387.28;;;24.12;47.67
70343;BME280;57767;42.068;24.752;2022-08-19T01:48:39;98392.88;;;24.15;47.50
70343;BME280;57767;42.068;24.752;2022-08-19T01:49:41;98385.69;;;24.11;48.03
70343;BME280;57767;42.068;24.752;2022-08-19T01:50:43;98391.38;;;24.09;47.76
70343;BME280;57767;42.068;24.752;2022-08-19T01:51:45;98395.03;;;24.05;47.79
70343;BME280;57767;42.068;24.752;2022-08-19T01:52:47;98393.34;;;23.95;48.15
70343;BME280;57767;42.068;24.752;2022-08-19T01:54:03;98405.91;;;24.00;47.19
70343;BME280;57767;42.068;24.752;2022-08-19T01:55:06;98408.63;;;24.00;46.94
70343;BME280;57767;42.068;24.752;2022-08-19T01:56:09;98413.72;;;24.01;47.56
70343;BME280;57767;42.068;24.752;2022-08-19T01:57:12;98410.50;;;23.99;48.61
70343;BME280;57767;42.068;24.752;2022-08-19T01:58:21;98413.03;;;23.96;48.58
70343;BME280;57767;42.068;24.752;2022-08-19T01:59:24;98400.88;;;23.84;46.77
70343;BME280;57767;42.068;24.752;2022-08-19T02:00:28;98414.25;;;23.89;48.04
70343;BME280;57767;42.068;24.752;2022-08-19T02:01:31;98414.06;;;23.86;47.83
70343;BME280;57767;42.068;24.752;2022-08-19T02:02:33;98412.34;;;23.90;47.81
70343;BME280;57767;42.068;24.752;2022-08-19T02:03:35;98410.97;;;23.92;47.98
70343;BME280;57767;42.068;24.752;2022-08-19T02:04:38;98419.03;;;23.92;48.19
70343;BME280;57767;42.068;24.752;2022-08-19T02:05:41;98411.88;;;23.88;46.99
70343;BME280;57767;42.068;24.752;2022-08-19T02:06:43;98427.59;;;23.94;47.40
70343;BME280;57767;42.068;24.752;2022-08-19T02:07:45;98427.75;;;23.89;48.66
70343;BME280;57767;42.068;24.752;2022-08-19T02:08:47;98420.75;;;23.88;47.69
70343;BME280;57767;42.068;24.752;2022-08-19T02:09:52;98424.44;;;23.92;48.15
70343;BME280;57767;42.068;24.752;2022-08-19T02:10:53;98419.34;;;23.91;47.67
70343;BME280;57767;42.068;24.752;2022-08-19T02:11:55;98426.50;;;23.96;48.17
70343;BME280;57767;42.068;24.752;2022-08-19T02:12:57;98424.09;;;23.94;49.58
70343;BME280;57767;42.068;24.752;2022-08-19T02:14:03;98421.41;;;23.94;48.96
70343;BME280;57767;42.068;24.752;2022-08-19T02:15:05;98423.16;;;23.90;48.57
70343;BME280;57767;42.068;24.752;2022-08-19T02:16:08;98430.13;;;23.91;48.65
70343;BME280;57767;42.068;24.752;2022-08-19T02:17:11;98432.44;;;23.84;49.00
70343;BME280;57767;42.068;24.752;2022-08-19T02:18:13;98427.59;;;23.72;49.81
70343;BME280;57767;42.068;24.752;2022-08-19T02:19:15;98428.50;;;23.68;50.76
70343;BME280;57767;42.068;24.752;2022-08-19T02:20:17;98432.34;;;23.53;50.41
70343;BME280;57767;42.068;24.752;2022-08-19T02:21:21;98439.19;;;23.59;50.29
70343;BME280;57767;42.068;24.752;2022-08-19T02:22:24;98421.06;;;23.51;50.90
70343;BME280;57767;42.068;24.752;2022-08-19T02:23:27;98437.88;;;23.56;49.95
70343;BME280;57767;42.068;24.752;2022-08-19T02:24:28;98437.00;;;23.61;49.67
70343;BME280;57767;42.068;24.752;2022-08-19T02:25:30;98443.47;;;23.60;51.02
70343;BME280;57767;42.068;24.752;2022-08-19T02:26:32;98450.78;;;23.60;51.22
70343;BME280;57767;42.068;24.752;2022-08-19T02:27:34;98442.38;;;23.61;50.79
70343;BME280;57767;42.068;24.752;2022-08-19T02:28:36;98442.09;;;23.63;51.00
70343;BME280;57767;42.068;24.752;2022-08-19T02:29:38;98445.59;;;23.63;50.64
70343;BME280;57767;42.068;24.752;2022-08-19T02:30:40;98432.09;;;23.63;49.03
70343;BME280;57767;42.068;24.752;2022-08-19T02:31:43;98442.78;;;23.68;50.03
70343;BME280;57767;42.068;24.752;2022-08-19T02:32:44;98421.84;;;23.51;50.00
70343;BME280;57767;42.068;24.752;2022-08-19T02:33:47;98434.59;;;23.60;51.05
70343;BME280;57767;42.068;24.752;2022-08-19T02:34:49;98439.78;;;23.56;50.78
70343;BME280;57767;42.068;24.752;2022-08-19T02:35:51;98440.41;;;23.53;51.30
70343;BME280;57767;42.068;24.752;2022-08-19T02:36:52;98443.63;;;23.55;51.47
70343;BME280;57767;42.068;24.752;2022-08-19T02:37:54;98445.19;;;23.56;50.79
70343;BME280;57767;42.068;24.752;2022-08-19T02:39:15;98442.47;;;23.56;50.64
70343;BME280;57767;42.068;24.752;2022-08-19T02:40:16;98447.56;;;23.57;51.24
70343;BME280;57767;42.068;24.752;2022-08-19T02:41:23;98445.19;;;23.56;51.37
70343;BME280;57767;42.068;24.752;2022-08-19T02:42:27;98452.50;;;23.55;51.69
70343;BME280;57767;42.068;24.752;2022-08-19T02:43:30;98443.91;;;23.53;51.07
70343;BME280;57767;42.068;24.752;2022-08-19T02:44:35;98442.69;;;23.46;50.19
70343;BME280;57767;42.068;24.752;2022-08-19T02:45:38;98457.66;;;23.38;50.03
70343;BME280;57767;42.068;24.752;2022-08-19T02:46:42;98451.97;;;23.40;50.75
70343;BME280;57767;42.068;24.752;2022-08-19T02:47:46;98451.84;;;23.45;50.79
70343;BME280;57767;42.068;24.752;2022-08-19T02:48:53;98452.94;;;23.44;50.74
70343;BME280;57767;42.068;24.752;2022-08-19T02:49:55;98453.94;;;23.48;50.25
70343;BME280;57767;42.068;24.752;2022-08-19T02:50:56;98455.56;;;23.49;51.68
70343;BME280;57767;42.068;24.752;2022-08-19T02:51:58;98443.09;;;23.39;50.94
70343;BME280;57767;42.068;24.752;2022-08-19T02:53:00;98455.06;;;23.47;50.68
70343;BME280;57767;42.068;24.752;2022-08-19T02:54:03;98457.75;;;23.47;51.57
70343;BME280;57767;42.068;24.752;2022-08-19T02:55:05;98450.88;;;23.41;51.39
70343;BME280;57767;42.068;24.752;2022-08-19T02:56:07;98455.19;;;23.42;51.04
70343;BME280;57767;42.068;24.752;2022-08-19T02:57:09;98439.69;;;23.34;50.86
70343;BME280;57767;42.068;24.752;2022-08-19T02:58:13;98448.78;;;23.38;50.76
70343;BME280;57767;42.068;24.752;2022-08-19T02:59:15;98450.47;;;23.34;50.41
70343;BME280;57767;42.068;24.752;2022-08-19T03:00:17;98448.28;;;23.36;50.26
70343;BME280;57767;42.068;24.752;2022-08-19T03:01:30;98445.88;;;23.34;49.93
70343;BME280;57767;42.068;24.752;2022-08-19T03:02:33;98453.88;;;23.39;49.31
70343;BME280;57767;42.068;24.752;2022-08-19T03:03:34;98462.84;;;23.48;50.36
70343;BME280;57767;42.068;24.752;2022-08-19T03:04:36;98455.19;;;23.42;51.04
70343;BME280;57767;42.068;24.752;2022-08-19T03:05:39;98458.97;;;23.27;50.53
70343;BME280;57767;42.068;24.752;2022-08-19T03:06:57;98455.56;;;23.21;50.75
70343;BME280;57767;42.068;24.752;2022-08-19T03:08:12;98458.47;;;23.25;50.50
70343;BME280;57767;42.068;24.752;2022-08-19T03:09:14;98466.13;;;23.32;50.73
70343;BME280;57767;42.068;24.752;2022-08-19T03:10:16;98457.75;;;23.33;51.65
70343;BME280;57767;42.068;24.752;2022-08-19T03:11:27;98457.59;;;23.30;50.90
70343;BME280;57767;42.068;24.752;2022-08-19T03:12:29;98458.19;;;23.27;50.46
70343;BME280;57767;42.068;24.752;2022-08-19T03:13:31;98470.44;;;23.33;49.36
70343;BME280;57767;42.068;24.752;2022-08-19T03:14:34;98461.25;;;23.34;49.65
70343;BME280;57767;42.068;24.752;2022-08-19T03:15:39;98464.75;;;23.34;49.55
70343;BME280;57767;42.068;24.752;2022-08-19T03:16:48;98451.19;;;23.26;51.92
70343;BME280;57767;42.068;24.752;2022-08-19T03:17:50;98458.06;;;23.32;52.07
70343;BME280;57767;42.068;24.752;2022-08-19T03:18:52;98462.16;;;23.29;52.76
70343;BME280;57767;42.068;24.752;2022-08-19T03:19:54;98464.75;;;23.34;51.81
70343;BME280;57767;42.068;24.752;2022-08-19T03:20:56;98461.53;;;23.32;52.68
70343;BME280;57767;42.068;24.752;2022-08-19T03:21:58;98466.25;;;23.27;53.28
70343;BME280;57767;42.068;24.752;2022-08-19T03:23:00;98466.56;;;23.25;52.25
70343;BME280;57767;42.068;24.752;2022-08-19T03:24:05;98468.44;;;23.25;52.97
70343;BME280;57767;42.068;24.752;2022-08-19T03:25:07;98471.72;;;23.21;52.42
70343;BME280;57767;42.068;24.752;2022-08-19T03:26:09;98473.31;;;23.22;52.61
70343;BME280;57767;42.068;24.752;2022-08-19T03:27:17;98472.75;;;23.26;51.49
70343;BME280;57767;42.068;24.752;2022-08-19T03:28:20;98476.91;;;23.18;52.56
70343;BME280;57767;42.068;24.752;2022-08-19T03:29:21;98461.25;;;23.06;53.12
70343;BME280;57767;42.068;24.752;2022-08-19T03:30:30;98468.16;;;23.12;53.42
70343;BME280;57767;42.068;24.752;2022-08-19T03:31:34;98478.13;;;23.12;52.89
70343;BME280;57767;42.068;24.752;2022-08-19T03:32:51;98466.16;;;23.04;53.22
70343;BME280;57767;42.068;24.752;2022-08-19T03:33:57;98478.72;;;23.09;52.93
70343;BME280;57767;42.068;24.752;2022-08-19T03:34:59;98476.94;;;23.04;53.36
70343;BME280;57767;42.068;24.752;2022-08-19T03:36:19;98482.50;;;23.08;53.00
70343;BME280;57767;42.068;24.752;2022-08-19T03:37:24;98483.13;;;23.05;53.14
70343;BME280;57767;42.068;24.752;2022-08-19T03:38:27;98487.38;;;23.06;52.87
70343;BME280;57767;42.068;24.752;2022-08-19T03:39:29;98487.38;;;23.06;52.75
70343;BME280;57767;42.068;24.752;2022-08-19T03:40:32;98466.53;;;22.98;53.38
70343;BME280;57767;42.068;24.752;2022-08-19T03:41:37;98476.31;;;23.07;53.14
70343;BME280;57767;42.068;24.752;2022-08-19T03:42:46;98462.53;;;22.95;54.11
70343;BME280;57767;42.068;24.752;2022-08-19T03:43:50;98484.69;;;23.06;53.49
70343;BME280;57767;42.068;24.752;2022-08-19T03:44:52;98483.13;;;23.05;54.61
70343;BME280;57767;42.068;24.752;2022-08-19T03:46:03;98479.69;;;22.99;54.77
70343;BME280;57767;42.068;24.752;2022-08-19T03:47:05;98487.09;;;23.07;54.15
70343;BME280;57767;42.068;24.752;2022-08-19T03:48:07;98485.69;;;23.10;53.13
70343;BME280;57767;42.068;24.752;2022-08-19T03:49:09;98481.19;;;23.05;54.82
70343;BME280;57767;42.068;24.752;2022-08-19T03:50:15;98468.13;;;22.85;54.17
70343;BME280;57767;42.068;24.752;2022-08-19T03:51:21;98489.47;;;22.95;54.95
70343;BME280;57767;42.068;24.752;2022-08-19T03:52:31;98487.38;;;22.92;55.20
70343;BME280;57767;42.068;24.752;2022-08-19T03:53:34;98491.47;;;22.90;55.66
70343;BME280;57767;42.068;24.752;2022-08-19T03:54:36;98493.44;;;22.84;55.54
70343;BME280;57767;42.068;24.752;2022-08-19T03:55:40;98482.78;;;22.79;54.95
70343;BME280;57767;42.068;24.752;2022-08-19T03:56:44;98475.78;;;22.78;56.68
70343;BME280;57767;42.068;24.752;2022-08-19T03:57:46;98489.66;;;22.85;55.37
70343;BME280;57767;42.068;24.752;2022-08-19T03:58:49;98492.84;;;22.87;54.23
70343;BME280;57767;42.068;24.752;2022-08-19T03:59:50;98483.97;;;22.86;54.26
70343;BME280;57767;42.068;24.752;2022-08-19T04:00:52;98492.44;;;22.94;54.90
70343;BME280;57767;42.068;24.752;2022-08-19T04:01:56;98492.97;;;22.96;55.98
70343;BME280;57767;42.068;24.752;2022-08-19T04:02:58;98488.88;;;22.98;55.67
70343;BME280;57767;42.068;24.752;2022-08-19T04:04:01;98474.50;;;22.89;55.16
70343;BME280;57767;42.068;24.752;2022-08-19T04:05:05;98492.88;;;23.01;54.57
70343;BME280;57767;42.068;24.752;2022-08-19T04:06:15;98471.13;;;22.97;54.89
70343;BME280;57767;42.068;24.752;2022-08-19T04:07:17;98469.94;;;23.03;55.34
70343;BME280;57767;42.068;24.752;2022-08-19T04:08:22;98492.69;;;23.25;55.62
70343;BME280;57767;42.068;24.752;2022-08-19T04:09:25;98498.66;;;23.35;55.42
70343;BME280;57767;42.068;24.752;2022-08-19T04:10:27;98490.28;;;23.37;54.65
70343;BME280;57767;42.068;24.752;2022-08-19T04:11:35;98493.28;;;23.49;55.59
70343;BME280;57767;42.068;24.752;2022-08-19T04:12:45;98494.19;;;23.58;53.44
70343;BME280;57767;42.068;24.752;2022-08-19T04:13:50;98487.31;;;23.66;54.19
70343;BME280;57767;42.068;24.752;2022-08-19T04:14:52;98493.88;;;23.73;54.91
70343;BME280;57767;42.068;24.752;2022-08-19T04:15:54;98475.31;;;23.72;54.60
70343;BME280;57767;42.068;24.752;2022-08-19T04:16:57;98493.44;;;23.93;53.86
70343;BME280;57767;42.068;24.752;2022-08-19T04:17:59;98496.22;;;24.02;52.09
70343;BME280;57767;42.068;24.752;2022-08-19T04:19:03;98494.09;;;24.13;53.74
70343;BME280;57767;42.068;24.752;2022-08-19T04:20:05;98486.03;;;24.21;54.50
70343;BME280;57767;42.068;24.752;2022-08-19T04:21:08;98474.06;;;24.27;53.97
70343;BME280;57767;42.068;24.752;2022-08-19T04:22:16;98498.66;;;24.48;53.16
70343;BME280;57767;42.068;24.752;2022-08-19T04:23:17;98486.66;;;24.54;54.19
70343;BME280;57767;42.068;24.752;2022-08-19T04:24:21;98487.03;;;24.70;53.37
70343;BME280;57767;42.068;24.752;2022-08-19T04:25:23;98503.66;;;24.86;52.46
70343;BME280;57767;42.068;24.752;2022-08-19T04:26:30;98486.75;;;24.94;50.67
70343;BME280;57767;42.068;24.752;2022-08-19T04:27:33;98500.19;;;25.16;51.13
70343;BME280;57767;42.068;24.752;2022-08-19T04:28:35;98496.59;;;25.29;54.23
70343;BME280;57767;42.068;24.752;2022-08-19T04:29:38;98482.91;;;25.34;53.58
70343;BME280;57767;42.068;24.752;2022-08-19T04:30:43;98498.56;;;25.55;51.15
70343;BME280;57767;42.068;24.752;2022-08-19T04:31:46;98496.56;;;25.69;51.17
70343;BME280;57767;42.068;24.752;2022-08-19T04:32:47;98505.16;;;25.80;50.47
70343;BME280;57767;42.068;24.752;2022-08-19T04:33:49;98501.22;;;25.94;51.37
70343;BME280;57767;42.068;24.752;2022-08-19T04:34:52;98498.69;;;26.07;48.34
70343;BME280;57767;42.068;24.752;2022-08-19T04:36:22;98504.06;;;26.24;48.70
70343;BME280;57767;42.068;24.752;2022-08-19T04:37:25;98500.44;;;26.37;48.75
70343;BME280;57767;42.068;24.752;2022-08-19T04:38:36;98498.34;;;26.51;48.24
70343;BME280;57767;42.068;24.752;2022-08-19T04:39:38;98500.25;;;26.68;50.56
70343;BME280;57767;42.068;24.752;2022-08-19T04:41:03;98499.44;;;26.85;48.59
70343;BME280;57767;42.068;24.752;2022-08-19T04:42:23;98501.28;;;27.01;46.18
70343;BME280;57767;42.068;24.752;2022-08-19T04:43:40;98494.56;;;27.16;47.69
70343;BME280;57767;42.068;24.752;2022-08-19T04:44:42;98491.47;;;27.26;44.69
70343;BME280;57767;42.068;24.752;2022-08-19T04:45:46;98496.63;;;27.48;45.63
70343;BME280;57767;42.068;24.752;2022-08-19T04:46:50;98497.03;;;27.68;45.24
70343;BME280;57767;42.068;24.752;2022-08-19T04:47:55;98500.09;;;27.87;49.11
70343;BME280;57767;42.068;24.752;2022-08-19T04:49:20;98494.34;;;28.09;46.90
70343;BME280;57767;42.068;24.752;2022-08-19T04:50:25;98496.56;;;28.37;48.28
70343;BME280;57767;42.068;24.752;2022-08-19T04:51:27;98491.97;;;28.49;46.99
70343;BME280;57767;42.068;24.752;2022-08-19T04:52:28;98497.09;;;28.75;45.05
70343;BME280;57767;42.068;24.752;2022-08-19T04:53:34;98497.53;;;28.98;45.59
70343;BME280;57767;42.068;24.752;2022-08-19T04:54:38;98500.97;;;29.19;43.61
70343;BME280;57767;42.068;24.752;2022-08-19T04:55:41;98502.22;;;29.34;41.48
70343;BME280;57767;42.068;24.752;2022-08-19T04:56:43;98501.31;;;29.54;41.46
70343;BME280;57767;42.068;24.752;2022-08-19T04:57:45;98505.41;;;29.73;40.71
70343;BME280;57767;42.068;24.752;2022-08-19T04:58:47;98496.09;;;29.86;38.75
70343;BME280;57767;42.068;24.752;2022-08-19T04:59:53;98508.66;;;30.03;40.11
70343;BME280;57767;42.068;24.752;2022-08-19T05:00:55;98509.41;;;30.15;40.44
70343;BME280;57767;42.068;24.752;2022-08-19T05:01:57;98499.25;;;30.28;39.36
70343;BME280;57767;42.068;24.752;2022-08-19T05:02:59;98494.50;;;30.37;38.59
70343;BME280;57767;42.068;24.752;2022-08-19T05:04:05;98495.34;;;30.53;38.65
70343;BME280;57767;42.068;24.752;2022-08-19T05:05:07;98504.63;;;30.80;37.62
70343;BME280;57767;42.068;24.752;2022-08-19T05:06:11;98511.78;;;31.01;36.95
70343;BME280;57767;42.068;24.752;2022-08-19T05:07:13;98510.41;;;31.22;37.15
70343;BME280;57767;42.068;24.752;2022-08-19T05:08:18;98508.97;;;31.44;36.57
70343;BME280;57767;42.068;24.752;2022-08-19T05:09:32;98505.22;;;31.64;36.12
70343;BME280;57767;42.068;24.752;2022-08-19T05:10:53;98509.69;;;31.92;35.12
70343;BME280;57767;42.068;24.752;2022-08-19T05:11:55;98505.69;;;32.05;35.31
70343;BME280;57767;42.068;24.752;2022-08-19T05:12:57;98507.59;;;32.20;33.75
70343;BME280;57767;42.068;24.752;2022-08-19T05:13:59;98507.53;;;32.36;33.99
70343;BME280;57767;42.068;24.752;2022-08-19T05:15:02;98507.38;;;32.48;33.15
70343;BME280;57767;42.068;24.752;2022-08-19T05:16:05;98506.44;;;32.60;34.30
70343;BME280;57767;42.068;24.752;2022-08-19T05:17:06;98512.75;;;32.83;33.27
70343;BME280;57767;42.068;24.752;2022-08-19T05:18:28;98516.97;;;33.00;32.42
70343;BME280;57767;42.068;24.752;2022-08-19T05:19:48;98516.09;;;33.19;32.38
70343;BME280;57767;42.068;24.752;2022-08-19T05:21:13;98505.31;;;33.26;31.70
70343;BME280;57767;42.068;24.752;2022-08-19T05:22:34;98518.59;;;33.50;32.48
70343;BME280;57767;42.068;24.752;2022-08-19T05:23:37;98507.75;;;33.57;32.62
70343;BME280;57767;42.068;24.752;2022-08-19T05:24:39;98474.72;;;33.43;32.20
70343;BME280;57767;42.068;24.752;2022-08-19T05:26:01;98518.41;;;33.89;31.83
70343;BME280;57767;42.068;24.752;2022-08-19T05:27:03;98507.09;;;33.90;31.11
70343;BME280;57767;42.068;24.752;2022-08-19T05:28:06;98524.94;;;34.07;30.80
70343;BME280;57767;42.068;24.752;2022-08-19T05:29:09;98506.22;;;34.12;29.98
70343;BME280;57767;42.068;24.752;2022-08-19T05:30:12;98517.06;;;34.32;30.84
70343;BME280;57767;42.068;24.752;2022-08-19T05:31:13;98510.53;;;34.43;30.11
70343;BME280;57767;42.068;24.752;2022-08-19T05:32:15;98512.19;;;34.52;29.41
70343;BME280;57767;42.068;24.752;2022-08-19T05:33:18;98515.84;;;34.63;28.92
70343;BME280;57767;42.068;24.752;2022-08-19T05:34:21;98516.31;;;34.72;29.06
70343;BME280;57767;42.068;24.752;2022-08-19T05:35:26;98516.06;;;34.80;29.32
70343;BME280;57767;42.068;24.752;2022-08-19T05:36:32;98515.78;;;34.96;29.43
70343;BME280;57767;42.068;24.752;2022-08-19T05:37:34;98511.22;;;35.07;29.02
70343;BME280;57767;42.068;24.752;2022-08-19T05:38:36;98507.38;;;35.15;29.29